Time;durP1;ratioP1;P1;durP2;ratioP2;P2;SDS_P1;SDS_P2;PMS_P1;PMS_P2;Temp;Humidity;BMP_temperature;BMP_pressure;BME280_temperature;BME280_humidity;BME280_pressure;Samples;Min_cycle;Max_cycle;Signal;HPM_P1;HPM_P2
2023/07/07 00:01:17;;;;;;;1999.90;999.90;;;;;;;16.33;100.00;95522.13;5109194;28;20225;-58
2023/07/07 00:03:43;;;;;;;1999.90;999.90;;;;;;;16.28;100.00;95520.66;5109262;28;20172;-51
2023/07/07 00:06:08;;;;;;;1999.90;999.90;;;;;;;16.25;100.00;95513.28;5108865;28;20239;-69
2023/07/07 00:08:34;;;;;;;1999.90;999.90;;;;;;;16.28;100.00;95504.13;5109211;28;20178;-68
2023/07/07 00:11:00;;;;;;;1999.90;999.90;;;;;;;16.27;100.00;95508.09;5108927;28;20232;-68
2023/07/07 00:13:25;;;;;;;1999.90;999.90;;;;;;;16.34;100.00;95507.13;5109044;28;20213;-68
2023/07/07 00:15:58;;;;;;;1999.90;999.90;;;;;;;16.27;100.00;95513.63;5108857;28;20237;-68
2023/07/07 00:18:26;;;;;;;1999.90;999.90;;;;;;;16.20;100.00;95505.53;5108947;28;20179;-68
2023/07/07 00:20:58;;;;;;;1999.90;999.90;;;;;;;16.18;100.00;95504.44;5108771;28;20239;-68
2023/07/07 00:23:24;;;;;;;1999.90;999.90;;;;;;;16.15;100.00;95497.81;5109439;28;20172;-58
2023/07/07 00:26:05;;;;;;;1999.90;999.90;;;;;;;16.11;100.00;95497.13;5109105;28;20190;-49
2023/07/07 00:28:32;;;;;;;1999.90;999.90;;;;;;;16.08;100.00;95487.00;5108746;28;20175;-48
2023/07/07 00:30:57;;;;;;;1999.90;999.90;;;;;;;16.00;100.00;95488.38;5109013;28;20199;-47
2023/07/07 00:33:24;;;;;;;1999.90;999.90;;;;;;;15.96;100.00;95487.72;5108412;28;20171;-49
2023/07/07 00:35:49;;;;;;;1999.90;999.90;;;;;;;15.96;100.00;95486.94;5108322;28;20227;-49
2023/07/07 00:38:16;;;;;;;1999.90;999.90;;;;;;;15.84;100.00;95485.69;5109125;28;20160;-51
2023/07/07 00:40:41;;;;;;;1999.90;999.90;;;;;;;15.81;100.00;95478.28;5108487;28;20212;-58
2023/07/07 00:43:18;;;;;;;1999.90;999.90;;;;;;;15.75;100.00;95482.78;5108441;28;20212;-67
2023/07/07 00:45:44;;;;;;;1999.90;999.90;;;;;;;15.78;100.00;95479.16;5108843;28;20167;-67
2023/07/07 00:48:14;;;;;;;1999.90;999.90;;;;;;;15.72;100.00;95472.66;5126284;28;20213;-68
2023/07/07 00:50:51;;;;;;;1999.90;999.90;;;;;;;15.65;100.00;95472.84;5108286;28;20171;-68
2023/07/07 00:53:17;;;;;;;1999.90;999.90;;;;;;;15.57;100.00;95465.97;5108785;28;20164;-70
2023/07/07 00:55:49;;;;;;;1999.90;999.90;;;;;;;15.61;100.00;95466.66;5107906;28;20168;-68
2023/07/07 00:58:18;;;;;;;1999.90;999.90;;;;;;;15.62;100.00;95462.69;5108608;28;20168;-50
2023/07/07 01:00:49;;;;;;;1999.90;999.90;;;;;;;15.63;100.00;95469.72;5108147;28;20168;-59
2023/07/07 01:03:22;;;;;;;1999.90;999.90;;;;;;;15.61;100.00;95455.63;5108590;28;20234;-60
2023/07/07 01:05:49;;;;;;;1999.90;999.90;;;;;;;15.57;100.00;95460.47;5107738;28;20208;-61
2023/07/07 01:08:16;;;;;;;1999.90;999.90;;;;;;;15.57;100.00;95465.97;5108414;28;20175;-60
2023/07/07 01:10:42;;;;;;;1999.90;999.90;;;;;;;15.59;100.00;95452.53;5107636;28;20218;-60
2023/07/07 01:13:07;;;;;;;1999.90;999.90;;;;;;;15.59;100.00;95458.03;5108081;28;20164;-60
2023/07/07 01:15:40;;;;;;;1999.90;999.90;;;;;;;15.52;100.00;95468.47;5107374;28;20181;-51
2023/07/07 01:18:26;;;;;;;1999.90;999.90;;;;;;;15.44;100.00;95462.38;5107782;28;20160;-59
2023/07/07 01:21:01;;;;;;;1999.90;999.90;;;;;;;15.40;100.00;95453.44;5108008;28;20164;-51
2023/07/07 01:23:57;;;;;;;1999.90;999.90;;;;;;;15.41;100.00;95452.22;5126032;28;20147;-47
2023/07/07 01:26:55;;;;;;;1999.90;999.90;;;;;;;15.37;100.00;95448.78;5125838;28;20214;-49
2023/07/07 01:29:21;;;;;;;1999.90;999.90;;;;;;;15.36;100.00;95444.50;5102179;28;20222;-45
2023/07/07 01:31:54;;;;;;;1999.90;999.90;;;;;;;15.31;100.00;95439.50;5107478;28;20210;-48
2023/07/07 01:34:21;;;;;;;1999.90;999.90;;;;;;;15.24;100.00;95431.41;5107322;28;20178;-43
2023/07/07 01:36:46;;;;;;;1999.90;999.90;;;;;;;15.19;100.00;95422.91;5107184;28;20212;-72
2023/07/07 01:39:12;;;;;;;1999.90;999.90;;;;;;;15.18;100.00;95416.63;5107855;28;20305;-42
2023/07/07 01:41:41;;;;;;;1999.90;999.90;;;;;;;15.13;100.00;95408.91;5108238;28;20209;-42
2023/07/07 01:44:33;;;;;;;1999.90;999.90;;;;;;;15.10;100.00;95409.75;5108202;28;20164;-43
2023/07/07 01:47:05;;;;;;;1999.90;999.90;;;;;;;15.06;100.00;95381.56;5107996;28;20209;-43
2023/07/07 01:49:38;;;;;;;1999.90;999.90;;;;;;;15.01;100.00;95384.06;5107491;28;20167;-42
2023/07/07 01:52:18;;;;;;;1999.90;999.90;;;;;;;14.98;100.00;95374.72;5106911;28;20183;-43
2023/07/07 01:54:53;;;;;;;1999.90;999.90;;;;;;;14.98;100.00;95362.94;5107972;28;20156;-58
2023/07/07 01:57:20;;;;;;;1999.90;999.90;;;;;;;14.93;100.00;95360.72;5107610;28;20166;-59
2023/07/07 01:59:46;;;;;;;1999.90;999.90;;;;;;;14.91;100.00;95352.91;5107666;28;20171;-59
2023/07/07 02:02:13;;;;;;;1999.90;999.90;;;;;;;14.97;100.00;95344.91;5107731;28;20164;-58
2023/07/07 02:04:38;;;;;;;1999.90;999.90;;;;;;;15.00;100.00;95344.78;5107321;28;20225;-59
2023/07/07 02:07:04;;;;;;;1999.90;999.90;;;;;;;15.00;100.00;95344.78;5107204;28;20243;-59
2023/07/07 02:09:29;;;;;;;1999.90;999.90;;;;;;;15.01;100.00;95343.56;5107185;28;20164;-59
2023/07/07 02:11:54;;;;;;;1999.90;999.90;;;;;;;14.92;100.00;95343.44;5107076;28;20267;-58
2023/07/07 02:14:20;;;;;;;1999.90;999.90;;;;;;;14.81;100.00;95337.44;5107208;28;20164;-50
2023/07/07 02:16:45;;;;;;;1999.90;999.90;;;;;;;14.78;100.00;95332.78;5107371;28;20164;-49
2023/07/07 02:19:10;;;;;;;1999.90;999.90;;;;;;;14.78;100.00;95316.28;5107177;28;20164;-50
2023/07/07 02:21:36;;;;;;;1999.90;999.90;;;;;;;14.75;100.00;95306.16;5107911;28;20160;-46
2023/07/07 02:24:01;;;;;;;1999.90;999.90;;;;;;;14.73;100.00;95296.81;5106951;28;20168;-47
2023/07/07 02:26:28;;;;;;;1999.90;999.90;;;;;;;14.68;100.00;95292.59;5107538;28;20237;-46
2023/07/07 02:28:53;;;;;;;1999.90;999.90;;;;;;;14.60;100.00;95288.47;5111701;28;20156;-49
2023/07/07 02:31:24;;;;;;;1999.90;999.90;;;;;;;14.60;100.00;95272.00;5110866;28;20192;-66
2023/07/07 02:33:49;;;;;;;1999.90;999.90;;;;;;;14.63;100.00;95257.38;5110710;28;20171;-59
2023/07/07 02:36:15;;;;;;;1999.90;999.90;;;;;;;14.66;100.00;95253.78;5110577;28;20219;-58
2023/07/07 02:38:40;;;;;;;1999.90;999.90;;;;;;;14.66;100.00;95253.00;5110942;28;20152;-58
2023/07/07 02:41:05;;;;;;;1999.90;999.90;;;;;;;14.67;100.00;95254.53;5111520;28;20168;-58
2023/07/07 02:43:31;;;;;;;1999.90;999.90;;;;;;;14.63;100.00;95240.91;5110730;28;20163;-58
2023/07/07 02:45:56;;;;;;;1999.90;999.90;;;;;;;14.58;100.00;95219.44;5111148;28;20164;-58
2023/07/07 02:48:22;;;;;;;1999.90;999.90;;;;;;;14.50;100.00;95228.31;5110774;28;20170;-60
2023/07/07 02:50:59;;;;;;;1999.90;999.90;;;;;;;14.48;100.00;95204.00;5111053;28;20187;-59
2023/07/07 02:53:30;;;;;;;1999.90;999.90;;;;;;;14.47;100.00;95207.97;5110708;28;20171;-48
2023/07/07 02:55:55;;;;;;;1999.90;999.90;;;;;;;14.40;100.00;95191.66;5110408;28;20152;-46
2023/07/07 02:58:22;;;;;;;1999.90;999.90;;;;;;;14.36;100.00;95193.72;5110593;28;20164;-47
2023/07/07 03:00:48;;;;;;;1999.90;999.90;;;;;;;14.33;100.00;95186.34;5110420;28;20164;-47
2023/07/07 03:03:14;;;;;;;1999.90;999.90;;;;;;;14.33;100.00;95177.31;5110379;28;20164;-48
2023/07/07 03:05:40;;;;;;;1999.90;999.90;;;;;;;14.33;100.00;95169.88;5110288;28;20162;-47
2023/07/07 03:08:06;;;;;;;1999.90;999.90;;;;;;;14.33;100.00;95147.88;5110307;28;20164;-50
2023/07/07 03:10:32;;;;;;;1999.90;999.90;;;;;;;14.40;100.00;95131.22;5110150;28;20160;-42
2023/07/07 03:12:57;;;;;;;1999.90;999.90;;;;;;;14.44;100.00;95133.84;5110669;28;20160;-42
2023/07/07 03:15:22;;;;;;;1999.90;999.90;;;;;;;14.43;100.00;95121.31;5110082;28;20160;-42
2023/07/07 03:17:48;;;;;;;1999.90;999.90;;;;;;;14.43;100.00;95124.84;5110680;28;20164;-42
2023/07/07 03:20:14;;;;;;;1999.90;999.90;;;;;;;14.41;100.00;95116.25;5110546;28;20163;-42
2023/07/07 03:22:39;;;;;;;1999.90;999.90;;;;;;;14.44;100.00;95115.41;5127831;28;20188;-43
2023/07/07 03:25:05;;;;;;;1999.90;999.90;;;;;;;14.48;100.00;95131.78;5109863;28;20234;-58
2023/07/07 03:27:31;;;;;;;1999.90;999.90;;;;;;;14.45;100.00;95149.91;5109915;28;20208;-58
2023/07/07 03:29:57;;;;;;;1999.90;999.90;;;;;;;14.44;100.00;95151.13;5109752;28;20164;-59
2023/07/07 03:32:22;;;;;;;1999.90;999.90;;;;;;;14.37;100.00;95172.50;5109916;28;20196;-59
2023/07/07 03:34:50;;;;;;;1999.90;999.90;;;;;;;14.34;100.00;95167.88;5109712;28;20171;-59
2023/07/07 03:37:16;;;;;;;1999.90;999.90;;;;;;;14.36;100.00;95168.22;5127185;28;20279;-58
2023/07/07 03:39:41;;;;;;;1999.90;999.90;;;;;;;14.40;100.00;95157.91;5109742;28;20253;-57
2023/07/07 03:42:08;;;;;;;1999.90;999.90;;;;;;;14.53;100.00;95170.50;5109725;28;20204;-58
2023/07/07 03:44:37;;;;;;;1999.90;999.90;;;;;;;14.70;100.00;95180.25;5109351;28;20184;-45
2023/07/07 03:47:02;;;;;;;1999.90;999.90;;;;;;;14.87;100.00;95203.72;5109620;28;20187;-58
2023/07/07 03:49:28;;;;;;;1999.90;999.90;;;;;;;15.09;100.00;95234.16;5109499;28;20166;-58
2023/07/07 03:51:53;;;;;;;1999.90;999.90;;;;;;;15.21;100.00;95278.19;5109314;28;20188;-59
2023/07/07 03:54:18;;;;;;;1999.90;999.90;;;;;;;15.43;100.00;95336.97;5109406;28;20160;-58
2023/07/07 03:56:44;;;;;;;1999.90;999.90;;;;;;;15.67;100.00;95378.78;5109393;28;20156;-58
2023/07/07 03:59:09;;;;;;;1999.90;999.90;;;;;;;15.86;100.00;95425.44;5109297;28;20251;-58
2023/07/07 04:01:35;;;;;;;1999.90;999.90;;;;;;;16.08;100.00;95467.72;5109229;28;20171;-63
2023/07/07 04:04:00;;;;;;;1999.90;999.90;;;;;;;16.28;100.00;95493.09;5109188;28;20156;-64
2023/07/07 04:06:26;;;;;;;1999.90;999.90;;;;;;;16.65;100.00;95515.72;5109204;28;20164;-67
2023/07/07 04:08:52;;;;;;;1999.90;999.90;;;;;;;16.82;100.00;95569.59;5109033;28;20163;-68
2023/07/07 04:11:20;;;;;;;1999.90;999.90;;;;;;;16.94;100.00;95582.63;5108638;28;20192;-67
2023/07/07 04:13:50;;;;;;;1999.90;999.90;;;;;;;17.24;100.00;95593.13;5109319;28;20197;-65
2023/07/07 04:16:19;;;;;;;1999.90;999.90;;;;;;;17.25;100.00;95617.53;5108684;28;20160;-65
2023/07/07 04:18:45;;;;;;;1999.90;999.90;;;;;;;17.31;100.00;95617.78;5109308;28;20160;-65
2023/07/07 04:21:14;;;;;;;1999.90;999.90;;;;;;;17.67;100.00;95621.75;5108616;28;20235;-47
2023/07/07 04:23:42;;;;;;;1999.90;999.90;;;;;;;17.84;100.00;95644.50;5108709;28;20164;-59
2023/07/07 04:26:08;;;;;;;1999.90;999.90;;;;;;;18.00;100.00;95649.94;5109025;28;20188;-58
2023/07/07 04:28:38;;;;;;;1999.90;999.90;;;;;;;18.12;100.00;95660.19;5108610;28;20182;-57
2023/07/07 04:31:05;;;;;;;1999.90;999.90;;;;;;;18.52;100.00;95666.75;5109279;28;20195;-57
2023/07/07 04:33:32;;;;;;;1999.90;999.90;;;;;;;18.72;100.00;95670.00;5108645;28;20246;-58
2023/07/07 04:35:59;;;;;;;1999.90;999.90;;;;;;;18.91;100.00;95677.22;5108397;28;20272;-58
2023/07/07 04:38:32;;;;;;;1999.90;999.90;;;;;;;19.01;100.00;95676.06;5108878;28;20167;-47
2023/07/07 04:41:15;;;;;;;1999.90;999.90;;;;;;;19.32;100.00;95696.31;5109025;28;20160;-58
2023/07/07 04:43:43;;;;;;;1999.90;999.90;;;;;;;19.54;100.00;95694.28;5108958;28;20187;-48
2023/07/07 04:46:11;;;;;;;1999.90;999.90;;;;;;;19.78;100.00;95698.13;5107965;28;20192;-51
2023/07/07 04:48:38;;;;;;;1999.90;999.90;;;;;;;20.04;100.00;95712.53;5108144;28;20233;-53
2023/07/07 04:51:08;;;;;;;1999.90;999.90;;;;;;;20.13;100.00;95710.59;5107279;28;20196;-52
2023/07/07 04:53:35;;;;;;;1999.90;999.90;;;;;;;20.35;100.00;95714.06;5108766;28;20179;-48
2023/07/07 04:56:02;;;;;;;1999.90;999.90;;;;;;;20.48;100.00;95720.25;5108161;28;20191;-48
2023/07/07 04:58:27;;;;;;;1999.90;999.90;;;;;;;20.59;100.00;95723.38;5107823;28;20235;-57
2023/07/07 05:01:04;;;;;;;1999.90;999.90;;;;;;;20.88;100.00;95728.50;5108025;28;20176;-47
2023/07/07 05:03:30;;;;;;;1999.90;999.90;;;;;;;21.03;100.00;95721.91;5108069;28;20281;-45
2023/07/07 05:05:56;;;;;;;1999.90;999.90;;;;;;;21.48;100.00;95738.53;5107974;28;20259;-49
2023/07/07 05:08:21;;;;;;;1999.90;999.90;;;;;;;21.71;100.00;95735.13;5108431;28;20242;-48
2023/07/07 05:10:47;;;;;;;1999.90;999.90;;;;;;;21.84;100.00;95734.94;5107860;28;20176;-49
2023/07/07 05:13:13;;;;;;;1999.90;999.90;;;;;;;22.20;100.00;95732.81;5108458;28;20163;-50
2023/07/07 05:15:38;;;;;;;1999.90;999.90;;;;;;;22.52;100.00;95734.06;5125592;28;20164;-57
2023/07/07 05:18:03;;;;;;;1999.90;999.90;;;;;;;22.84;100.00;95738.81;5108287;28;20163;-68
2023/07/07 05:20:29;;;;;;;1999.90;999.90;;;;;;;23.17;100.00;95733.94;5108503;28;20163;-63
2023/07/07 05:22:54;;;;;;;1999.90;999.90;;;;;;;23.34;100.00;95739.88;5108002;28;20229;-64
2023/07/07 05:25:19;;;;;;;1999.90;999.90;;;;;;;23.43;100.00;95750.94;5107969;28;20196;-63
2023/07/07 05:27:45;;;;;;;1999.90;999.90;;;;;;;23.87;100.00;95752.53;5107539;28;20184;-63
2023/07/07 05:30:10;;;;;;;1999.90;999.90;;;;;;;23.96;100.00;95748.91;5107287;28;20164;-62
2023/07/07 05:32:36;;;;;;;1999.90;999.90;;;;;;;24.31;100.00;95752.50;5108006;28;20195;-62
2023/07/07 05:35:01;;;;;;;1999.90;999.90;;;;;;;24.52;100.00;95754.88;5107099;28;20169;-66
2023/07/07 05:37:26;;;;;;;1999.90;999.90;;;;;;;24.57;100.00;95759.00;5107377;28;20286;-57
2023/07/07 05:39:52;;;;;;;1999.90;999.90;;;;;;;24.72;100.00;95759.75;5107114;28;20179;-61
2023/07/07 05:42:17;;;;;;;1999.90;999.90;;;;;;;24.62;100.00;95761.16;5107036;28;20172;-60
2023/07/07 05:44:42;;;;;;;1999.90;999.90;;;;;;;24.97;100.00;95759.88;5108189;28;20179;-58
2023/07/07 05:47:08;;;;;;;1999.90;999.90;;;;;;;25.23;100.00;95751.53;5107303;28;20168;-60
2023/07/07 05:49:33;;;;;;;1999.90;999.90;;;;;;;25.55;100.00;95753.22;5107071;28;20168;-59
2023/07/07 05:51:59;;;;;;;1999.90;999.90;;;;;;;25.56;100.00;95763.16;5107329;28;20192;-66
2023/07/07 05:54:24;;;;;;;1999.90;999.90;;;;;;;26.02;100.00;95761.13;5107347;28;20164;-68
2023/07/07 05:56:50;;;;;;;1999.90;999.90;;;;;;;26.26;100.00;95766.41;5107012;28;20175;-52
2023/07/07 05:59:15;;;;;;;1999.90;999.90;;;;;;;26.49;100.00;95763.31;5107754;28;20168;-50
2023/07/07 06:01:41;;;;;;;1999.90;999.90;;;;;;;26.73;100.00;95763.75;5109467;28;20269;-51
2023/07/07 06:04:06;;;;;;;1999.90;999.90;;;;;;;27.20;100.00;95760.19;5111989;28;20213;-50
2023/07/07 06:06:31;;;;;;;1999.90;999.90;;;;;;;27.33;98.87;95763.34;5111630;28;20163;-53
2023/07/07 06:08:56;;;;;;;1999.90;999.90;;;;;;;27.63;96.18;95761.66;5111790;28;20171;-52
2023/07/07 06:11:22;;;;;;;1999.90;999.90;;;;;;;27.59;97.14;95755.53;5111095;28;20191;-50
2023/07/07 06:13:47;;;;;;;1999.90;999.90;;;;;;;27.23;98.18;95764.03;5110898;28;20266;-51
2023/07/07 06:16:13;;;;;;;1999.90;999.90;;;;;;;27.39;97.10;95775.34;5111296;28;20191;-49
2023/07/07 06:18:39;;;;;;;1999.90;999.90;;;;;;;27.89;97.08;95765.06;5111521;28;20244;-49
2023/07/07 06:21:05;;;;;;;1999.90;999.90;;;;;;;28.08;88.95;95777.34;5129039;28;20164;-50
2023/07/07 06:23:31;;;;;;;1999.90;999.90;;;;;;;27.73;90.41;95777.00;5110964;28;20213;-50
2023/07/07 06:25:57;;;;;;;1999.90;999.90;;;;;;;27.25;93.47;95772.75;5110915;28;20187;-53
2023/07/07 06:28:23;;;;;;;1999.90;999.90;;;;;;;27.43;90.58;95778.66;5110692;28;20177;-51
2023/07/07 06:30:50;;;;;;;1999.90;999.90;;;;;;;28.09;86.78;95778.88;5110914;28;20239;-67
2023/07/07 06:33:16;;;;;;;1999.90;999.90;;;;;;;28.42;81.16;95785.81;5111150;28;20171;-46
2023/07/07 06:35:43;;;;;;;1999.90;999.90;;;;;;;28.85;79.38;95784.28;5110577;28;20195;-44
2023/07/07 06:38:08;;;;;;;1999.90;999.90;;;;;;;29.09;74.24;95788.09;5111077;28;20171;-45
2023/07/07 06:40:34;;;;;;;1999.90;999.90;;;;;;;29.37;73.62;95782.38;5110736;28;20198;-44
2023/07/07 06:43:00;;;;;;;1999.90;999.90;;;;;;;28.45;79.22;95785.59;5110505;28;20198;-44
2023/07/07 06:45:26;;;;;;;1999.90;999.90;;;;;;;29.21;75.23;95798.03;5128699;28;20172;-45
2023/07/07 06:47:51;;;;;;;1999.90;999.90;;;;;;;29.74;71.03;95791.22;5110680;28;20244;-49
2023/07/07 06:50:27;;;;;;;1999.90;999.90;;;;;;;29.43;71.68;95786.72;5110641;28;20174;-62
2023/07/07 06:52:52;;;;;;;1999.90;999.90;;;;;;;29.89;67.42;95788.84;5110392;28;20270;-61
2023/07/07 06:55:17;;;;;;;1999.90;999.90;;;;;;;30.87;65.68;95790.22;5110577;28;20174;-62
2023/07/07 06:57:43;;;;;;;1999.90;999.90;;;;;;;30.91;63.63;95787.09;5110325;28;20168;-62
2023/07/07 07:00:09;;;;;;;1999.90;999.90;;;;;;;30.84;61.39;95787.69;5111201;28;20171;-61
2023/07/07 07:02:34;;;;;;;1999.90;999.90;;;;;;;31.30;63.44;95801.63;5109969;28;20172;-61
2023/07/07 07:04:59;;;;;;;1999.90;999.90;;;;;;;31.42;59.92;95791.72;5110307;28;20203;-62
2023/07/07 07:07:24;;;;;;;1999.90;999.90;;;;;;;31.99;60.94;95788.47;5110226;28;20172;-45
2023/07/07 07:09:50;;;;;;;1999.90;999.90;;;;;;;31.60;59.37;95791.00;5110687;28;20167;-50
2023/07/07 07:12:15;;;;;;;1999.90;999.90;;;;;;;32.11;54.65;95789.09;5109600;28;20199;-49
2023/07/07 07:14:40;;;;;;;1999.90;999.90;;;;;;;32.15;56.98;95787.44;5109939;28;20168;-49
2023/07/07 07:17:08;;;;;;;1999.90;999.90;;;;;;;32.43;55.50;95790.66;5109740;28;20167;-48
2023/07/07 07:19:33;;;;;;;1999.90;999.90;;;;;;;31.45;57.59;95787.84;5110513;28;20168;-52
2023/07/07 07:21:58;;;;;;;1999.90;999.90;;;;;;;30.97;59.20;95796.28;5109919;28;20160;-49
2023/07/07 07:24:24;;;;;;;1999.90;999.90;;;;;;;31.65;56.23;95787.34;5110430;28;20160;-60
2023/07/07 07:26:50;;;;;;;1999.90;999.90;;;;;;;32.25;55.53;95791.41;5127576;28;20180;-59
2023/07/07 07:29:15;;;;;;;1999.90;999.90;;;;;;;33.62;49.69;95805.31;5109728;28;20247;-45
2023/07/07 07:31:42;;;;;;;1999.90;999.90;;;;;;;32.92;49.13;95799.69;5110224;28;20202;-46
2023/07/07 07:34:26;;;;;;;1999.90;999.90;;;;;;;33.40;50.09;95794.41;5109767;28;20239;-44
2023/07/07 07:36:52;;;;;;;1999.90;999.90;;;;;;;33.10;48.39;95802.41;5109112;28;20245;-49
2023/07/07 07:39:18;;;;;;;1999.90;999.90;;;;;;;33.57;48.12;95796.91;5109514;28;20190;-45
2023/07/07 07:41:46;;;;;;;1999.90;999.90;;;;;;;33.18;49.22;95799.72;5109345;28;20239;-45
2023/07/07 07:44:13;;;;;;;1999.90;999.90;;;;;;;32.86;50.32;95808.25;5109772;28;20175;-45
2023/07/07 07:46:38;;;;;;;1999.90;999.90;;;;;;;33.38;48.94;95799.88;5109403;28;20167;-59
2023/07/07 07:49:04;;;;;;;1999.90;999.90;;;;;;;34.02;45.66;95810.97;5109159;28;20231;-58
2023/07/07 07:51:29;;;;;;;1999.90;999.90;;;;;;;34.08;46.21;95817.28;5109842;28;20198;-59
2023/07/07 07:53:54;;;;;;;1999.90;999.90;;;;;;;33.37;49.09;95801.19;5109887;28;20195;-59
2023/07/07 07:56:20;;;;;;;1999.90;999.90;;;;;;;34.39;43.61;95802.94;5109177;28;20168;-59
2023/07/07 07:58:46;;;;;;;1999.90;999.90;;;;;;;33.40;45.22;95808.56;5109288;28;20241;-60
2023/07/07 08:01:11;;;;;;;1999.90;999.90;;;;;;;33.78;40.98;95818.41;5109165;28;20171;-53
2023/07/07 08:03:36;;;;;;;1999.90;999.90;;;;;;;33.98;41.33;95807.72;5109348;28;20237;-45
2023/07/07 08:06:02;;;;;;;1999.90;999.90;;;;;;;32.56;41.38;95823.91;5109458;28;20177;-59
2023/07/07 08:08:27;;;;;;;1999.90;999.90;;;;;;;32.64;41.45;95825.59;5108811;28;20174;-59
2023/07/07 08:10:52;;;;;;;1999.90;999.90;;;;;;;32.55;38.47;95828.06;5108933;28;20168;-59
2023/07/07 08:13:18;;;;;;;1999.90;999.90;;;;;;;31.81;43.31;95820.31;5109027;28;20203;-59
2023/07/07 08:15:43;;;;;;;1999.90;999.90;;;;;;;31.72;43.58;95814.97;5108940;28;20172;-59
2023/07/07 08:18:08;;;;;;;1999.90;999.90;;;;;;;32.59;38.34;95820.75;5108855;28;20167;-60
2023/07/07 08:20:34;;;;;;;1999.90;999.90;;;;;;;32.74;38.06;95826.69;5108859;28;20192;-51
2023/07/07 08:22:59;;;;;;;1999.90;999.90;;;;;;;32.31;40.00;95819.66;5109127;28;20172;-69
2023/07/07 08:25:27;;;;;;;1999.90;999.90;;;;;;;32.13;38.79;95821.16;5108699;28;20174;-69
2023/07/07 08:27:53;;;;;;;1999.90;999.90;;;;;;;32.55;35.87;95823.13;5108723;28;20188;-69
2023/07/07 08:30:19;;;;;;;1999.90;999.90;;;;;;;32.63;36.22;95823.28;5108271;28;20172;-67
2023/07/07 08:32:44;;;;;;;1999.90;999.90;;;;;;;33.56;36.17;95818.84;5108551;28;20220;-68
2023/07/07 08:35:11;;;;;;;1999.90;999.90;;;;;;;32.64;34.34;95825.59;5108624;28;20172;-68
2023/07/07 08:37:36;;;;;;;1999.90;999.90;;;;;;;32.37;35.71;95829.59;5105486;28;20216;-46
2023/07/07 08:40:03;;;;;;;1999.90;999.90;;;;;;;32.35;35.29;95823.72;5105094;28;20168;-60
2023/07/07 08:42:32;;;;;;;1999.90;999.90;;;;;;;31.49;36.21;95830.66;5104627;28;20173;-51
2023/07/07 08:45:00;;;;;;;1999.90;999.90;;;;;;;32.47;36.90;95816.56;5104570;28;20195;-54
2023/07/07 08:47:44;;;;;;;1999.90;999.90;;;;;;;33.45;35.20;95818.28;5105723;28;20358;-51
2023/07/07 08:50:47;;;;;;;1999.90;999.90;;;;;;;32.71;35.51;95824.97;5104876;28;20196;-51
2023/07/07 08:53:39;;;;;;;1999.90;999.90;;;;;;;32.16;34.41;95820.09;5104799;28;20184;-52
2023/07/07 08:56:20;;;;;;;1999.90;999.90;;;;;;;31.86;33.47;95825.13;5104508;28;20165;-51
2023/07/07 08:58:53;;;;;;;1999.90;999.90;;;;;;;32.36;33.32;95828.06;5105328;28;20176;-67
2023/07/07 09:01:34;;;;;;;1999.90;999.90;;;;;;;32.11;32.76;95818.09;5105168;28;20165;-59
2023/07/07 09:04:30;;;;;;;1999.90;999.90;;;;;;;31.64;35.18;95813.31;5104423;28;20169;-61
2023/07/07 09:07:21;;;;;;;1999.90;999.90;;;;;;;31.50;35.58;95823.72;5105323;28;20175;-60
2023/07/07 09:10:08;;;;;;;1999.90;999.90;;;;;;;31.39;35.67;95808.97;5104524;28;20173;-60
2023/07/07 09:12:56;;;;;;;1999.90;999.90;;;;;;;30.94;37.00;95808.63;5105245;28;20203;-60
2023/07/07 09:15:25;;;;;;;1999.90;999.90;;;;;;;32.04;36.37;95818.72;5103994;28;20165;-52
2023/07/07 09:18:07;;;;;;;1999.90;999.90;;;;;;;31.16;36.65;95818.97;5104615;28;20180;-52
2023/07/07 09:20:35;;;;;;;1999.90;999.90;;;;;;;31.14;36.38;95820.22;5104220;28;20161;-50
2023/07/07 09:23:10;;;;;;;1999.90;999.90;;;;;;;31.97;35.40;95818.56;5104707;28;20179;-53
2023/07/07 09:25:41;;;;;;;1999.90;999.90;;;;;;;32.09;34.40;95815.06;5104408;28;20164;-49
2023/07/07 09:28:11;;;;;;;1999.90;999.90;;;;;;;32.30;34.49;95818.84;5104208;28;20164;-49
2023/07/07 09:30:51;;;;;;;1999.90;999.90;;;;;;;30.69;36.15;95813.44;5103961;28;20247;-51
2023/07/07 09:33:19;;;;;;;1999.90;999.90;;;;;;;32.36;33.80;95816.75;5104740;28;20164;-59
2023/07/07 09:36:08;;;;;;;1999.90;999.90;;;;;;;32.31;32.67;95820.44;5105725;28;20176;-59
2023/07/07 09:38:55;;;;;;;1999.90;999.90;;;;;;;33.25;32.81;95818.91;5108062;28;20172;-68
2023/07/07 09:41:58;;;;;;;1999.90;999.90;;;;;;;33.64;31.29;95813.25;5107336;28;20187;-69
2023/07/07 09:44:30;;;;;;;1999.90;999.90;;;;;;;32.36;32.13;95821.63;5107453;28;20183;-68
2023/07/07 09:47:40;;;;;;;1999.90;999.90;;;;;;;31.04;33.72;95823.94;5107809;28;20164;-69
2023/07/07 09:50:11;;;;;;;1999.90;999.90;;;;;;;32.07;32.12;95809.16;5026542;28;20209;-69
2023/07/07 09:52:48;;;;;;;1999.90;999.90;;;;;;;33.13;32.07;95809.06;5093594;28;20239;-49
2023/07/07 09:55:21;;;;;;;1999.90;999.90;;;;;;;32.55;30.84;95816.72;5107851;28;20208;-69
2023/07/07 09:58:09;;;;;;;1999.90;999.90;;;;;;;33.37;30.62;95800.41;5106969;28;20248;-69
2023/07/07 10:00:37;;;;;;;1999.90;999.90;;;;;;;33.16;30.08;95808.75;5107774;28;20248;-69
2023/07/07 10:03:19;;;;;;;1999.90;999.90;;;;;;;34.53;29.75;95800.81;5107214;28;20179;-69
2023/07/07 10:05:44;;;;;;;1999.90;999.90;;;;;;;34.88;28.00;95800.97;5107725;28;20164;-69
2023/07/07 10:08:13;;;;;;;1999.90;999.90;;;;;;;35.41;28.21;95796.53;5107276;28;20164;-69
2023/07/07 10:10:38;;;;;;;1999.90;999.90;;;;;;;33.56;29.64;95801.06;5107290;28;20167;-59
2023/07/07 10:13:10;;;;;;;1999.90;999.90;;;;;;;33.37;30.13;95800.41;5107108;28;20203;-60
2023/07/07 10:15:53;;;;;;;1999.90;999.90;;;;;;;32.50;30.98;95798.53;5107092;28;20201;-60
2023/07/07 10:18:25;;;;;;;1999.90;999.90;;;;;;;32.48;31.38;95795.47;5107671;28;20164;-60
2023/07/07 10:20:55;;;;;;;1999.90;999.90;;;;;;;32.74;29.95;95797.63;5106761;28;20168;-60
2023/07/07 10:23:21;;;;;;;1999.90;999.90;;;;;;;34.03;29.82;95787.72;5107109;28;20168;-61
2023/07/07 10:25:46;;;;;;;1999.90;999.90;;;;;;;33.59;28.58;95792.25;5107147;28;20174;-60
2023/07/07 10:28:15;;;;;;;1999.90;999.90;;;;;;;33.47;29.05;95793.00;5106921;28;20198;-64
2023/07/07 10:30:42;;;;;;;1999.90;999.90;;;;;;;33.08;29.78;95793.72;5106737;28;20164;-65
2023/07/07 10:33:13;;;;;;;1999.90;999.90;;;;;;;33.07;29.72;95788.59;5107424;28;20176;-50
2023/07/07 10:35:39;;;;;;;1999.90;999.90;;;;;;;32.99;28.96;95796.94;5124396;28;20168;-51
2023/07/07 10:38:05;;;;;;;1999.90;999.90;;;;;;;32.68;28.87;95800.56;5107482;28;20235;-51
2023/07/07 10:40:32;;;;;;;1999.90;999.90;;;;;;;33.78;27.74;95792.88;5107160;28;20164;-52
2023/07/07 10:42:58;;;;;;;1999.90;999.90;;;;;;;33.27;26.64;95790.78;5106700;28;20282;-52
2023/07/07 10:45:24;;;;;;;1999.90;999.90;;;;;;;33.21;27.99;95793.72;5107387;28;20239;-49
2023/07/07 10:47:50;;;;;;;1999.90;999.90;;;;;;;32.66;30.61;95789.00;5107871;28;20175;-60
2023/07/07 10:50:20;;;;;;;1999.90;999.90;;;;;;;33.47;30.35;95793.75;5110606;28;20170;-46
2023/07/07 10:52:56;;;;;;;1999.90;999.90;;;;;;;34.98;27.75;95796.34;5110522;28;20203;-49
2023/07/07 10:55:43;;;;;;;1999.90;999.90;;;;;;;34.51;26.60;95809.09;5110549;28;20167;-46
2023/07/07 10:58:50;;;;;;;1999.90;999.90;;;;;;;33.77;27.26;95799.88;5110375;28;20168;-47